Nearby METAR Reports

 

KI68 - Lebanon, Ohio, USA
Distance from station: SW 1mi, 3km
Updated: Wed, 21-Feb-2024 2:15am EST
Clear
Clear
 Wind from SE
Wind: SE 3 mph , 6 km/h
Temperature: 41°F , 5°C
Dew Point: 25°F , -4°C
Humidity: 53%
Barometer: 30.20 inHg , 1022.7 hPa
Clouds: Clear
Visibility: 10 miles , 16 km
2024/02/21 07:15 KI68 210715Z AUTO 13003KT 10SM CLR 05/M04 A3020 RMK AO2
KLEX - Lexington, Kentucky, USA
Distance from station: SE 25mi, 38km
Updated: Wed, 21-Feb-2024 1:54am EST
Clear
Clear
 Wind from SSE
Wind: SSE 6 mph , 9 km/h
Temperature: 39°F , 4°C
Wind Chill: 35°F , 2°C
Dew Point: 21°F , -6°C
Humidity: 48%
Barometer: 30.24 inHg , 1024 hPa
Clouds: Clear
Visibility: 10 miles , 16 km
2024/02/21 06:54 KLEX 210654Z 15005KT 10SM CLR 04/M06 A3024 RMK AO2 SLP242 T00441056
 
KFFT - Frankfort, Kentucky, USA
Distance from station: WNW 24mi, 38km
Updated: Wed, 21-Feb-2024 1:53am EST
Clear
Clear
 Wind from calm
Wind: Calm
Temperature: 30°F , -1°C
Dew Point: 23°F , -5°C
Humidity: 75%
Barometer: 30.23 inHg , 1023.7 hPa
Clouds: Clear
Visibility: 9 miles , 14 km
2024/02/21 06:53 KFFT 210653Z AUTO 00000KT 9SM CLR M01/M05 A3023 RMK AO2 SLP239 T10111050
KIOB - Mount Sterling, Kentucky, USA
Distance from station: E 28mi, 46km
Updated: Wed, 21-Feb-2024 2:15am EST
Clear
Clear
 Wind from SSW
Wind: SSW 3 mph , 6 km/h
Temperature: 32°F , 0°C
Dew Point: 27°F , -3°C
Humidity: 80%
Barometer: 30.26 inHg , 1024.7 hPa
Clouds: Clear
Visibility: 10 miles , 16 km
2024/02/21 07:15 KIOB 210715Z AUTO 21003KT 10SM CLR 00/M03 A3026 RMK AO2 PWINO
 
KDVK - Danville, Kentucky, USA
Distance from station: SSW 35mi, 56km
Updated: Wed, 21-Feb-2024 2:15am EST
Clear
Clear
 Wind from calm
Wind: Calm
Temperature: 32°F , 0°C
Dew Point: 27°F , -3°C
Humidity: 80%
Barometer: 30.25 inHg , 1024.4 hPa
Clouds: Clear
Visibility: 10 miles , 16 km
2024/02/21 07:15 KDVK 210715Z AUTO 00000KT 10SM CLR 00/M03 A3025 RMK AO2
K6I2 - Springfield, Kentucky, USA
Distance from station: SW 49mi, 80km
Updated: Wed, 21-Feb-2024 2:15am EST
Clear
Clear
 Wind from SSE
Wind: SSE 7 mph , 11 km/h
Temperature: 39°F , 4°C
Wind Chill: 34°F , 1°C
Dew Point: 23°F , -5°C
Humidity: 52%
Barometer: 30.24 inHg , 1024 hPa
Clouds: Clear
Visibility: 10 miles , 16 km
2024/02/21 07:15 K6I2 210715Z AUTO 15006KT 10SM CLR 04/M05 A3024 RMK AO2
 
KSYM - Morehead, Kentucky, USA
Distance from station: ENE 51mi, 83km
Updated: Wed, 21-Feb-2024 2:15am EST
Few Clouds
Few Clouds
 Wind from SSE
Wind: SSE 6 mph , 9 km/h
Temperature: 36°F , 2°C
Wind Chill: 31°F , -1°C
Dew Point: 23°F , -5°C
Humidity: 60%
Barometer: 30.25 inHg , 1024.4 hPa
Clouds: Few Clouds
Visibility: 10 miles , 16 km
Cloud details: Few Clouds 4100 ft
2024/02/21 07:15 KSYM 210715Z AUTO 16005KT 10SM FEW041 02/M05 A3025 RMK AO2
KFGX - Flemingsburg, Kentucky, USA
Distance from station: NE 54mi, 87km
Updated: Wed, 21-Feb-2024 2:15am EST
Clear
Clear
 Wind from SSW
Wind: SSW 7 mph , 11 km/h
Temperature: 36°F , 2°C
Wind Chill: 30°F , -1°C
Dew Point: 23°F , -5°C
Humidity: 60%
Barometer: 30.25 inHg , 1024.4 hPa
Clouds: Clear
Visibility: 10 miles , 16 km
2024/02/21 07:15 KFGX 210715Z AUTO 20006KT 10SM CLR 02/M05 A3025 RMK AO2 T00171052
 
KLOU - Louisville/Bowmn, Kentucky, USA
Distance from station: W 64mi, 104km
Updated: Wed, 21-Feb-2024 1:53am EST
Clear
Clear
 Wind from calm
Wind: Calm
Temperature: 36°F , 2°C
Dew Point: 27°F , -3°C
Humidity: 70%
Barometer: 30.22 inHg , 1023.4 hPa
Clouds: Clear
Visibility: 10 miles , 16 km
2024/02/21 06:53 KLOU 210653Z AUTO 00000KT 10SM CLR 02/M03 A3022 RMK AO2 SLP234 T00221033
KSDF - Louisville, Kentucky, USA
Distance from station: W 68mi, 109km
Updated: Wed, 21-Feb-2024 1:56am EST
Clear
Clear
 Wind from SE
Wind: SE 5 mph , 7 km/h
Temperature: 41°F , 5°C
Wind Chill: 38°F , 3°C
Dew Point: 23°F , -5°C
Humidity: 49%
Barometer: 30.22 inHg , 1023.4 hPa
Clouds: Clear
Visibility: 10 miles , 16 km
2024/02/21 06:56 KSDF 210656Z 13004KT 10SM CLR 05/M05 A3022 RMK AO2 SLP234 T00501050
 
KSME - Somerset, Kentucky, USA
Distance from station: S 69mi, 111km
Updated: Wed, 21-Feb-2024 2:15am EST
Clear
Clear
 Wind from calm
Wind: Calm
Temperature: 32°F , 0°C
Dew Point: 27°F , -3°C
Humidity: 80%
Barometer: 30.24 inHg , 1024 hPa
Clouds: Clear
Visibility: 10 miles , 16 km
2024/02/21 07:15 KSME 210715Z AUTO 00000KT 10SM CLR 00/M03 A3024 RMK AO2
KCVG - Covington, Kentucky, USA
Distance from station: N 70mi, 113km
Updated: Wed, 21-Feb-2024 1:52am EST
Clear
Clear
 Wind from S
Wind: S 8 mph , 13 km/h
Temperature: 39°F , 4°C
Wind Chill: 33°F , 1°C
Dew Point: 21°F , -6°C
Humidity: 48%
Barometer: 30.21 inHg , 1023 hPa
Clouds: Clear
Visibility: 10 miles , 16 km
2024/02/21 06:52 KCVG 210652Z 19007KT 10SM CLR 04/M06 A3021 RMK AO2 SLP229 T00391056 $
 
KLOZ - London, Kentucky, USA
Distance from station: SSE 70mi, 113km
Updated: Wed, 21-Feb-2024 1:53am EST
Clear
Clear
 Wind from calm
Wind: Calm
Temperature: 32°F , 0°C
Dew Point: 27°F , -3°C
Humidity: 80%
Barometer: 30.26 inHg , 1024.7 hPa
Clouds: Clear
Visibility: 10 miles , 16 km
2024/02/21 06:53 KLOZ 210653Z AUTO 00000KT 10SM CLR 00/M03 A3026 RMK AO2 SLP250 T00001033
KJKL - Noctor/Jackson, Kentucky, USA
Distance from station: ESE 72mi, 115km
Updated: Wed, 21-Feb-2024 1:53am EST
Clear
Clear
 Wind from calm
Wind: Calm
Temperature: 45°F , 7°C
Dew Point: 19°F , -7°C
Humidity: 37%
Barometer: 30.25 inHg , 1024.4 hPa
Clouds: Clear
Visibility: 10 miles , 16 km
2024/02/21 06:53 KJKL 210653Z AUTO 00000KT 10SM CLR 07/M07 A3025 RMK AO2 SLP241 T00721072 $
 
KIMS - Madison, Indiana, USA
Distance from station: NW 72mi, 116km
Updated: Wed, 21-Feb-2024 2:15am EST
Clear
Clear
 Wind from calm
Wind: Calm
Temperature: 32°F , 0°C
Dew Point: 28°F , -2°C
Humidity: 87%
Barometer: 30.23 inHg , 1023.7 hPa
Clouds: Clear
Visibility: 10 miles , 16 km
2024/02/21 07:15 KIMS 210715Z AUTO 00000KT 10SM CLR 00/M02 A3023 RMK AO2
KLUK - Cincinnat/Lunken, Ohio, USA
Distance from station: N 73mi, 118km
Updated: Wed, 21-Feb-2024 1:53am EST
Clear
Clear
 Wind from calm
Wind: Calm
Temperature: 30°F , -1°C
Dew Point: 25°F , -4°C
Humidity: 80%
Barometer: 30.24 inHg , 1024 hPa
Clouds: Clear
Visibility: 10 miles , 16 km
2024/02/21 06:53 KLUK 210653Z AUTO 00000KT 10SM CLR M01/M04 A3024 RMK AO2 SLP243 T10111039
 
KI69 - Batavia, Ohio, USA
Distance from station: NNE 74mi, 119km
Updated: Wed, 21-Feb-2024 2:16am EST
Clear
Clear
 Wind from calm
Wind: Calm
Temperature: 32°F , 0°C
Dew Point: 27°F , -3°C
Humidity: 80%
Barometer: 30.23 inHg , 1023.7 hPa
Clouds: Clear
Visibility: 10 miles , 16 km
2024/02/21 07:16 KI69 210716Z AUTO 00000KT 10SM CLR 00/M03 A3023 RMK AO1 T00031035